Time;durP1;ratioP1;P1;durP2;ratioP2;P2;SDS_P1;SDS_P2;PMS_P1;PMS_P2;Temp;Humidity;BMP_temperature;BMP_pressure;BME280_temperature;BME280_humidity;BME280_pressure;Samples;Min_cycle;Max_cycle;Signal;HPM_P1;HPM_P2
2022/07/09 00:02:25;;;;;;;1999.90;999.90;;;10.90;98.20;;;;;;5099500;28;20051;-80
2022/07/09 00:04:51;;;;;;;1999.90;999.90;;;10.90;99.90;;;;;;5063156;28;20028;-80
2022/07/09 00:07:16;;;;;;;1999.90;999.90;;;10.80;99.90;;;;;;5060478;28;20066;-80
2022/07/09 00:09:42;;;;;;;1999.90;999.90;;;10.70;99.90;;;;;;5075863;28;20039;-80
2022/07/09 00:12:08;;;;;;;1999.90;999.90;;;10.70;99.90;;;;;;5077036;28;20510;-80
2022/07/09 00:14:34;;;;;;;1999.90;999.90;;;10.70;99.50;;;;;;5060904;28;20441;-80
2022/07/09 00:17:00;;;;;;;1999.90;999.90;;;10.70;98.00;;;;;;5072205;28;20024;-80
2022/07/09 00:19:26;;;;;;;1999.90;999.90;;;10.70;97.90;;;;;;5103565;28;20043;-79
2022/07/09 00:21:52;;;;;;;1999.90;999.90;;;10.80;98.40;;;;;;5080478;28;20047;-79
2022/07/09 00:24:17;;;;;;;1999.90;999.90;;;10.80;98.70;;;;;;5105326;28;20024;-77
2022/07/09 00:26:46;;;;;;;1999.90;999.90;;;10.80;98.40;;;;;;5101930;28;20032;-80
2022/07/09 00:29:11;;;;;;;1999.90;999.90;;;10.70;98.30;;;;;;5080292;28;20118;-80
2022/07/09 00:31:37;;;;;;;1999.90;999.90;;;10.80;98.40;;;;;;5049872;28;20508;-80
2022/07/09 00:34:03;;;;;;;1999.90;999.90;;;10.70;98.60;;;;;;5096435;28;20032;-80
2022/07/09 00:36:28;;;;;;;1999.90;999.90;;;10.70;99.40;;;;;;5080980;28;20491;-80
2022/07/09 00:38:54;;;;;;;1999.90;999.90;;;10.60;99.90;;;;;;5076074;28;20036;-79
2022/07/09 00:41:20;;;;;;;1999.90;999.90;;;10.50;99.90;;;;;;5069603;28;20548;-81
2022/07/09 00:43:48;;;;;;;1999.90;999.90;;;10.40;99.90;;;;;;5073066;28;20031;-79
2022/07/09 00:46:14;;;;;;;1999.90;999.90;;;10.20;99.90;;;;;;5078221;28;20527;-80
2022/07/09 00:48:40;;;;;;;1999.90;999.90;;;10.30;99.90;;;;;;5078307;28;20562;-80
2022/07/09 00:51:08;;;;;;;1999.90;999.90;;;10.30;99.90;;;;;;5097670;28;20102;-80
2022/07/09 00:53:34;;;;;;;1999.90;999.90;;;10.30;99.90;;;;;;5065238;28;20039;-80
2022/07/09 00:56:00;;;;;;;1999.90;999.90;;;10.20;99.90;;;;;;5098139;28;20368;-80
2022/07/09 00:58:27;;;;;;;1999.90;999.90;;;10.30;99.90;;;;;;5076822;28;20036;-79
2022/07/09 01:00:54;;;;;;;1999.90;999.90;;;10.30;99.90;;;;;;5098905;28;20028;-80
2022/07/09 01:03:20;;;;;;;1999.90;999.90;;;10.30;99.90;;;;;;5077003;28;20641;-85
2022/07/09 01:05:46;;;;;;;1999.90;999.90;;;10.30;99.90;;;;;;5096937;28;20024;-80
2022/07/09 01:08:12;;;;;;;1999.90;999.90;;;10.20;99.90;;;;;;5076890;28;20035;-80
2022/07/09 01:10:38;;;;;;;1999.90;999.90;;;10.30;99.90;;;;;;5095046;28;20031;-79
2022/07/09 01:13:04;;;;;;;1999.90;999.90;;;10.20;99.90;;;;;;5075768;28;20047;-80
2022/07/09 01:15:30;;;;;;;1999.90;999.90;;;10.10;99.90;;;;;;5092292;28;20031;-80
2022/07/09 01:17:57;;;;;;;1999.90;999.90;;;10.20;99.90;;;;;;5086463;28;20373;-80
2022/07/09 01:20:30;;;;;;;1999.90;999.90;;;10.20;99.90;;;;;;5096368;28;20027;-80
2022/07/09 01:22:56;;;;;;;1999.90;999.90;;;10.20;99.90;;;;;;5100002;28;20482;-80
2022/07/09 01:25:35;;;;;;;1999.90;999.90;;;10.30;99.90;;;;;;5082832;28;20035;-81
2022/07/09 01:28:00;;;;;;;1999.90;999.90;;;10.20;99.90;;;;;;5097880;28;20034;-80
2022/07/09 01:30:27;;;;;;;1999.90;999.90;;;10.10;99.90;;;;;;5076057;28;20372;-80
2022/07/09 01:32:54;;;;;;;1999.90;999.90;;;10.10;99.90;;;;;;5078886;28;20555;-80
2022/07/09 01:35:21;;;;;;;1999.90;999.90;;;10.00;99.90;;;;;;5092456;28;20032;-83
2022/07/09 01:37:47;;;;;;;1999.90;999.90;;;10.10;99.90;;;;;;5092281;28;20020;-80
2022/07/09 01:40:13;;;;;;;1999.90;999.90;;;10.00;99.90;;;;;;5072035;28;20039;-80
2022/07/09 01:42:39;;;;;;;1999.90;999.90;;;10.00;99.90;;;;;;5087254;28;20047;-80
2022/07/09 01:45:05;;;;;;;1999.90;999.90;;;9.90;99.90;;;;;;5094451;28;20398;-80
2022/07/09 01:47:31;;;;;;;1999.90;999.90;;;10.00;99.90;;;;;;5070758;28;20507;-80
2022/07/09 01:49:57;;;;;;;1999.90;999.90;;;9.90;99.90;;;;;;5082558;28;20038;-80
2022/07/09 01:52:24;;;;;;;1999.90;999.90;;;9.80;99.90;;;;;;5099838;28;20027;-80
2022/07/09 01:54:50;;;;;;;1999.90;999.90;;;9.80;99.90;;;;;;5100667;28;20035;-80
2022/07/09 01:57:15;;;;;;;1999.90;999.90;;;9.80;99.90;;;;;;5065595;28;20024;-80
2022/07/09 01:59:41;;;;;;;1999.90;999.90;;;9.60;99.90;;;;;;5099339;28;20046;-80
2022/07/09 02:02:06;;;;;;;1999.90;999.90;;;9.60;99.90;;;;;;5061347;28;20047;-80
2022/07/09 02:04:32;;;;;;;1999.90;999.90;;;9.60;99.90;;;;;;5078138;28;20064;-80
2022/07/09 02:06:58;;;;;;;1999.90;999.90;;;9.60;99.90;;;;;;5094569;28;20028;-80
2022/07/09 02:09:23;;;;;;;1999.90;999.90;;;9.60;99.90;;;;;;5075914;28;20032;-80
2022/07/09 02:11:49;;;;;;;1999.90;999.90;;;9.60;99.90;;;;;;5076802;28;20024;-80
2022/07/09 02:14:15;;;;;;;1999.90;999.90;;;9.70;99.90;;;;;;5070526;28;20070;-80
2022/07/09 02:16:41;;;;;;;1999.90;999.90;;;9.70;99.90;;;;;;5073770;28;20344;-80
2022/07/09 02:19:07;;;;;;;1999.90;999.90;;;9.60;99.90;;;;;;5064542;28;20058;-80
2022/07/09 02:21:33;;;;;;;1999.90;999.90;;;9.70;99.90;;;;;;5079417;28;20423;-80
2022/07/09 02:23:59;;;;;;;1999.90;999.90;;;9.50;99.90;;;;;;5095676;28;20034;-80
2022/07/09 02:26:29;;;;;;;1999.90;999.90;;;9.50;99.90;;;;;;5079239;28;20058;-79
2022/07/09 02:28:55;;;;;;;1999.90;999.90;;;9.40;99.90;;;;;;5081435;28;20080;-80
2022/07/09 02:31:21;;;;;;;1999.90;999.90;;;9.40;99.90;;;;;;5094343;28;20032;-83
2022/07/09 02:33:46;;;;;;;1999.90;999.90;;;9.40;99.90;;;;;;5072416;28;20049;-80
2022/07/09 02:36:12;;;;;;;1999.90;999.90;;;9.30;99.90;;;;;;5075824;28;20036;-79
2022/07/09 02:38:38;;;;;;;1999.90;999.90;;;9.30;99.90;;;;;;5074393;28;20387;-80
2022/07/09 02:41:04;;;;;;;1999.90;999.90;;;9.30;99.90;;;;;;5057752;28;20418;-80
2022/07/09 02:43:30;;;;;;;1999.90;999.90;;;9.30;99.90;;;;;;5090125;28;20040;-80
2022/07/09 02:45:55;;;;;;;1999.90;999.90;;;9.30;99.90;;;;;;5069568;28;20437;-79
2022/07/09 02:48:28;;;;;;;1999.90;999.90;;;9.30;99.90;;;;;;5081507;28;20055;-79
2022/07/09 02:50:54;;;;;;;1999.90;999.90;;;9.40;99.90;;;;;;5100814;28;20024;-79
2022/07/09 02:53:20;;;;;;;1999.90;999.90;;;9.40;99.90;;;;;;5059575;28;20564;-80
2022/07/09 02:55:46;;;;;;;1999.90;999.90;;;9.40;99.90;;;;;;5069793;28;20085;-80
2022/07/09 02:58:12;;;;;;;1999.90;999.90;;;9.30;99.90;;;;;;5102114;28;20028;-80
2022/07/09 03:00:42;;;;;;;1999.90;999.90;;;9.20;99.90;;;;;;5101124;28;20513;-80
2022/07/09 03:03:08;;;;;;;1999.90;999.90;;;9.20;99.90;;;;;;5101976;28;20039;-79
2022/07/09 03:05:34;;;;;;;1999.90;999.90;;;9.40;99.90;;;;;;5077863;28;20041;-79
2022/07/09 03:08:01;;;;;;;1999.90;999.90;;;9.30;99.90;;;;;;5097260;28;20027;-80
2022/07/09 03:10:26;;;;;;;1999.90;999.90;;;9.40;99.90;;;;;;5094460;28;20044;-79
2022/07/09 03:12:52;;;;;;;1999.90;999.90;;;9.40;99.90;;;;;;5079457;28;20052;-80
2022/07/09 03:15:18;;;;;;;1999.90;999.90;;;9.40;99.90;;;;;;5092898;28;20032;-80
2022/07/09 03:17:45;;;;;;;1999.90;999.90;;;9.40;99.90;;;;;;5100852;28;20562;-80
2022/07/09 03:20:11;;;;;;;1999.90;999.90;;;9.30;99.90;;;;;;5098399;28;20111;-79
2022/07/09 03:22:37;;;;;;;1999.90;999.90;;;9.30;99.90;;;;;;5081354;28;20115;-79
2022/07/09 03:25:04;;;;;;;1999.90;999.90;;;9.30;99.90;;;;;;5099231;28;20119;-79
2022/07/09 03:27:29;;;;;;;1999.90;999.90;;;9.30;99.90;;;;;;5077391;28;20521;-80
2022/07/09 03:29:55;;;;;;;1999.90;999.90;;;9.20;99.90;;;;;;5081679;28;20019;-80
2022/07/09 03:32:21;;;;;;;1999.90;999.90;;;9.20;99.90;;;;;;5088969;28;20085;-80
2022/07/09 03:34:47;;;;;;;1999.90;999.90;;;9.10;99.90;;;;;;5072987;28;20036;-80
2022/07/09 03:37:13;;;;;;;1999.90;999.90;;;9.10;99.90;;;;;;5097435;28;20036;-80
2022/07/09 03:39:39;;;;;;;1999.90;999.90;;;9.10;99.90;;;;;;5076694;28;20088;-80
2022/07/09 03:42:08;;;;;;;1999.90;999.90;;;9.10;99.90;;;;;;5093213;28;20036;-80
2022/07/09 03:44:34;;;;;;;1999.90;999.90;;;9.10;99.90;;;;;;5095230;28;20036;-80
2022/07/09 03:47:01;;;;;;;1999.90;999.90;;;9.10;99.90;;;;;;5067656;28;20483;-80
2022/07/09 03:49:27;;;;;;;1999.90;999.90;;;9.10;99.90;;;;;;5087766;28;20571;-80
2022/07/09 03:51:53;;;;;;;1999.90;999.90;;;9.10;99.90;;;;;;5088450;28;20178;-80
2022/07/09 03:54:18;;;;;;;1999.90;999.90;;;9.20;99.90;;;;;;5086036;28;20055;-81
2022/07/09 03:56:44;;;;;;;1999.90;999.90;;;9.20;99.90;;;;;;5097073;28;20033;-80
2022/07/09 03:59:10;;;;;;;1999.90;999.90;;;9.30;99.90;;;;;;5066226;28;20016;-80
2022/07/09 04:01:35;;;;;;;1999.90;999.90;;;9.20;99.90;;;;;;5097994;28;20036;-80
2022/07/09 04:04:01;;;;;;;1999.90;999.90;;;9.30;99.90;;;;;;5063303;28;20036;-80
2022/07/09 04:06:27;;;;;;;1999.90;999.90;;;9.40;99.90;;;;;;5076920;28;20038;-80
2022/07/09 04:08:52;;;;;;;1999.90;999.90;;;9.50;99.90;;;;;;5077397;28;20031;-80
2022/07/09 04:11:18;;;;;;;1999.90;999.90;;;9.50;99.90;;;;;;5091555;28;20028;-80
2022/07/09 04:13:44;;;;;;;1999.90;999.90;;;9.60;99.90;;;;;;5094645;28;20067;-80
2022/07/09 04:16:10;;;;;;;1999.90;999.90;;;9.60;99.90;;;;;;5090581;28;20111;-80
2022/07/09 04:18:36;;;;;;;1999.90;999.90;;;9.70;99.90;;;;;;5084516;28;20071;-80
2022/07/09 04:21:02;;;;;;;1999.90;999.90;;;9.70;99.90;;;;;;5081700;28;20056;-80
2022/07/09 04:23:28;;;;;;;1999.90;999.90;;;9.80;99.90;;;;;;5066013;28;20027;-80
2022/07/09 04:25:54;;;;;;;1999.90;999.90;;;9.90;99.90;;;;;;5079787;28;20028;-80
2022/07/09 04:28:20;;;;;;;1999.90;999.90;;;9.80;99.90;;;;;;5091756;28;20039;-80
2022/07/09 04:30:46;;;;;;;1999.90;999.90;;;9.80;99.90;;;;;;5094174;28;20730;-79
2022/07/09 04:33:12;;;;;;;1999.90;999.90;;;9.80;99.90;;;;;;5079857;28;20032;-80
2022/07/09 04:35:38;;;;;;;1999.90;999.90;;;9.90;99.90;;;;;;5096920;28;20039;-79
2022/07/09 04:38:04;;;;;;;1999.90;999.90;;;10.00;99.90;;;;;;5096024;28;20032;-80
2022/07/09 04:40:29;;;;;;;1999.90;999.90;;;10.20;99.90;;;;;;5088862;28;20553;-80
2022/07/09 04:42:55;;;;;;;1999.90;999.90;;;10.30;99.90;;;;;;5090714;28;20075;-80
2022/07/09 04:45:21;;;;;;;1999.90;999.90;;;10.40;99.90;;;;;;5039791;28;20031;-80
2022/07/09 04:47:47;;;;;;;1999.90;999.90;;;10.50;99.90;;;;;;5078952;28;20031;-80
2022/07/09 04:50:13;;;;;;;1999.90;999.90;;;10.60;99.90;;;;;;5068796;28;20082;-80
2022/07/09 04:52:39;;;;;;;1999.90;999.90;;;10.70;99.90;;;;;;5081975;28;20028;-80
2022/07/09 04:55:05;;;;;;;1999.90;999.90;;;10.70;99.90;;;;;;5077886;28;20104;-80
2022/07/09 04:57:31;;;;;;;1999.90;999.90;;;10.80;99.90;;;;;;5078626;28;20027;-79
2022/07/09 05:00:01;;;;;;;1999.90;999.90;;;11.00;99.90;;;;;;5080488;28;20031;-80
2022/07/09 05:02:27;;;;;;;1999.90;999.90;;;11.10;99.90;;;;;;5097185;28;20059;-80
2022/07/09 05:04:53;;;;;;;1999.90;999.90;;;11.20;99.90;;;;;;5098355;28;20034;-80
2022/07/09 05:07:20;;;;;;;1999.90;999.90;;;11.20;99.90;;;;;;5076106;28;20028;-79
2022/07/09 05:09:45;;;;;;;1999.90;999.90;;;11.30;99.90;;;;;;5075581;28;20036;-79
2022/07/09 05:12:11;;;;;;;1999.90;999.90;;;11.40;99.90;;;;;;5088568;28;20043;-80
2022/07/09 05:14:38;;;;;;;1999.90;999.90;;;11.60;99.90;;;;;;5094884;28;20055;-80
2022/07/09 05:17:04;;;;;;;1999.90;999.90;;;11.70;99.90;;;;;;5052689;28;20031;-80
2022/07/09 05:19:30;;;;;;;1999.90;999.90;;;12.00;99.90;;;;;;5104079;28;20495;-80
2022/07/09 05:21:56;;;;;;;1999.90;999.90;;;12.00;99.90;;;;;;5100044;28;20024;-79
2022/07/09 05:24:22;;;;;;;1999.90;999.90;;;12.20;99.90;;;;;;5081853;28;20038;-80
2022/07/09 05:26:48;;;;;;;1999.90;999.90;;;12.30;99.90;;;;;;5097831;28;20028;-81
2022/07/09 05:29:14;;;;;;;1999.90;999.90;;;12.20;99.90;;;;;;5095971;28;20203;-80
2022/07/09 05:31:39;;;;;;;1999.90;999.90;;;12.30;99.90;;;;;;5079586;28;20411;-79
2022/07/09 05:34:05;;;;;;;1999.90;999.90;;;12.40;99.90;;;;;;5096328;28;20039;-80
2022/07/09 05:36:31;;;;;;;1999.90;999.90;;;12.50;99.90;;;;;;5092652;28;20072;-79
2022/07/09 05:38:58;;;;;;;1999.90;999.90;;;12.70;99.90;;;;;;5074849;28;20042;-80
2022/07/09 05:41:24;;;;;;;1999.90;999.90;;;12.80;99.90;;;;;;5086230;28;20032;-80
2022/07/09 05:43:50;;;;;;;1999.90;999.90;;;12.80;99.90;;;;;;5073999;28;20499;-80
2022/07/09 05:46:16;;;;;;;1999.90;999.90;;;13.00;99.70;;;;;;5091355;28;20024;-80
2022/07/09 05:48:42;;;;;;;1999.90;999.90;;;13.10;99.40;;;;;;5068687;28;20043;-80
2022/07/09 05:51:07;;;;;;;1999.90;999.90;;;13.20;99.70;;;;;;5081685;28;20024;-80
2022/07/09 05:53:33;;;;;;;1999.90;999.90;;;13.30;99.90;;;;;;5095994;28;20562;-80
2022/07/09 05:55:59;;;;;;;1999.90;999.90;;;13.50;99.90;;;;;;5078700;28;20027;-80
2022/07/09 05:58:25;;;;;;;1999.90;999.90;;;13.60;99.90;;;;;;5078543;28;20411;-80
2022/07/09 06:00:50;;;;;;;1999.90;999.90;;;13.70;98.80;;;;;;5075928;28;20037;-81
2022/07/09 06:03:16;;;;;;;1999.90;999.90;;;14.00;98.30;;;;;;5093042;28;20030;-81
2022/07/09 06:05:42;;;;;;;1999.90;999.90;;;14.20;98.30;;;;;;5095172;28;20028;-81
2022/07/09 06:08:09;;;;;;;1999.90;999.90;;;14.30;96.60;;;;;;5073937;28;20656;-80
2022/07/09 06:10:34;;;;;;;1999.90;999.90;;;14.40;96.50;;;;;;5066856;28;20032;-80
2022/07/09 06:13:00;;;;;;;1999.90;999.90;;;14.60;96.50;;;;;;5089375;28;20384;-79
2022/07/09 06:15:26;;;;;;;1999.90;999.90;;;14.80;95.30;;;;;;5085675;28;20035;-81
2022/07/09 06:17:52;;;;;;;1999.90;999.90;;;14.80;98.20;;;;;;5073023;28;20627;-80
2022/07/09 06:20:17;;;;;;;1999.90;999.90;;;14.80;95.20;;;;;;5067264;28;20036;-79
2022/07/09 06:22:43;;;;;;;1999.90;999.90;;;14.80;97.50;;;;;;5079161;28;20032;-79
2022/07/09 06:25:09;;;;;;;1999.90;999.90;;;15.00;96.70;;;;;;5071076;28;20046;-82
2022/07/09 06:27:35;;;;;;;1999.90;999.90;;;14.90;97.00;;;;;;5077643;28;20038;-80
2022/07/09 06:30:01;;;;;;;1999.90;999.90;;;15.10;97.70;;;;;;5098561;28;20023;-80
2022/07/09 06:32:27;;;;;;;1999.90;999.90;;;15.30;95.50;;;;;;5092203;28;20039;-80
2022/07/09 06:34:53;;;;;;;1999.90;999.90;;;15.50;93.50;;;;;;5096174;28;20402;-80
2022/07/09 06:37:18;;;;;;;1999.90;999.90;;;15.70;92.50;;;;;;5076499;28;20407;-84
2022/07/09 06:39:48;;;;;;;1999.90;999.90;;;15.80;87.60;;;;;;5073407;28;20040;-80
2022/07/09 06:42:16;;;;;;;1999.90;999.90;;;16.00;89.00;;;;;;5056875;28;20395;-80
2022/07/09 06:44:43;;;;;;;1999.90;999.90;;;16.20;90.10;;;;;;5069729;28;20093;-80
2022/07/09 06:47:09;;;;;;;1999.90;999.90;;;16.30;87.20;;;;;;5082309;28;20024;-80
2022/07/09 06:49:35;;;;;;;1999.90;999.90;;;16.40;90.90;;;;;;5102221;28;20035;-80
2022/07/09 06:52:01;;;;;;;1999.90;999.90;;;16.70;89.90;;;;;;5082057;28;20316;-80
2022/07/09 06:54:27;;;;;;;1999.90;999.90;;;16.80;91.80;;;;;;5081042;28;20054;-80
2022/07/09 06:56:52;;;;;;;1999.90;999.90;;;16.80;92.50;;;;;;5097632;28;20435;-80
2022/07/09 06:59:18;;;;;;;1999.90;999.90;;;17.00;91.50;;;;;;5078675;28;20551;-81
2022/07/09 07:01:47;;;;;;;1999.90;999.90;;;17.10;89.10;;;;;;5092816;28;20773;-80
2022/07/09 07:04:14;;;;;;;1999.90;999.90;;;17.30;85.70;;;;;;5071446;28;20044;-80
2022/07/09 07:06:43;;;;;;;1999.90;999.90;;;17.40;81.40;;;;;;5092387;28;20055;-80
2022/07/09 07:09:09;;;;;;;1999.90;999.90;;;17.60;79.40;;;;;;5090038;28;20474;-82
2022/07/09 07:11:35;;;;;;;1999.90;999.90;;;17.60;86.50;;;;;;5089791;28;20047;-81
2022/07/09 07:14:01;;;;;;;1999.90;999.90;;;17.70;82.30;;;;;;5095905;28;20048;-80
2022/07/09 07:16:26;;;;;;;1999.90;999.90;;;17.90;76.20;;;;;;5078449;28;20038;-80
2022/07/09 07:18:53;;;;;;;1999.90;999.90;;;18.00;73.80;;;;;;5096369;28;20031;-80
2022/07/09 07:21:18;;;;;;;1999.90;999.90;;;17.90;74.30;;;;;;5099538;28;20027;-80
2022/07/09 07:23:44;;;;;;;1999.90;999.90;;;18.10;78.00;;;;;;5100951;28;20035;-81
2022/07/09 07:26:09;;;;;;;1999.90;999.90;;;18.30;77.30;;;;;;5078438;28;20028;-80
2022/07/09 07:28:35;;;;;;;1999.90;999.90;;;18.40;79.30;;;;;;5096198;28;20038;-80
2022/07/09 07:31:01;;;;;;;1999.90;999.90;;;18.40;70.90;;;;;;5090853;28;20036;-80
2022/07/09 07:33:26;;;;;;;1999.90;999.90;;;18.60;71.90;;;;;;5055592;28;20039;-80
2022/07/09 07:35:52;;;;;;;1999.90;999.90;;;18.70;67.90;;;;;;5078047;28;20642;-81
2022/07/09 07:38:17;;;;;;;1999.90;999.90;;;18.60;65.80;;;;;;5074233;28;20037;-80
2022/07/09 07:40:43;;;;;;;1999.90;999.90;;;18.80;63.90;;;;;;5057461;28;20059;-81
2022/07/09 07:43:12;;;;;;;1999.90;999.90;;;18.90;63.50;;;;;;5093983;28;20112;-81
2022/07/09 07:45:38;;;;;;;1999.90;999.90;;;18.70;69.10;;;;;;5089858;28;20216;-81
2022/07/09 07:48:04;;;;;;;1999.90;999.90;;;19.00;67.40;;;;;;5095157;28;20482;-81
2022/07/09 07:50:30;;;;;;;1999.90;999.90;;;19.10;56.40;;;;;;5085858;28;20558;-81
2022/07/09 07:52:56;;;;;;;1999.90;999.90;;;18.90;59.00;;;;;;5101179;28;20035;-81
2022/07/09 07:55:22;;;;;;;1999.90;999.90;;;19.00;57.70;;;;;;5103447;28;20118;-81
2022/07/09 07:57:48;;;;;;;1999.90;999.90;;;19.10;57.40;;;;;;5077232;28;20107;-82
2022/07/09 08:00:14;;;;;;;1999.90;999.90;;;19.20;57.50;;;;;;5063810;28;20218;-81
2022/07/09 08:02:39;;;;;;;1999.90;999.90;;;19.30;57.00;;;;;;5075581;28;20118;-80
2022/07/09 08:05:06;;;;;;;1999.90;999.90;;;19.20;61.60;;;;;;5098599;28;20498;-80
2022/07/09 08:07:32;;;;;;;1999.90;999.90;;;19.40;59.10;;;;;;5069679;28;20051;-81
2022/07/09 08:09:58;;;;;;;1999.90;999.90;;;19.70;56.00;;;;;;5086554;28;20055;-80
2022/07/09 08:12:23;;;;;;;1999.90;999.90;;;20.00;57.00;;;;;;5061713;28;20036;-80
2022/07/09 08:14:49;;;;;;;1999.90;999.90;;;20.10;57.40;;;;;;5083573;28;20032;-80
2022/07/09 08:17:15;;;;;;;1999.90;999.90;;;20.00;53.60;;;;;;5069671;28;20414;-81
2022/07/09 08:19:40;;;;;;;1999.90;999.90;;;20.10;51.50;;;;;;5076001;28;20040;-81
2022/07/09 08:22:06;;;;;;;1999.90;999.90;;;20.00;52.50;;;;;;5062656;28;20032;-80
2022/07/09 08:24:32;;;;;;;1999.90;999.90;;;20.20;54.40;;;;;;5064658;28;20073;-81
2022/07/09 08:26:58;;;;;;;1999.90;999.90;;;20.30;50.60;;;;;;5082799;28;20577;-81
2022/07/09 08:29:24;;;;;;;1999.90;999.90;;;20.60;53.20;;;;;;5063931;28;20024;-80
2022/07/09 08:31:50;;;;;;;1999.90;999.90;;;20.80;53.80;;;;;;5063475;28;20484;-81
2022/07/09 08:34:16;;;;;;;1999.90;999.90;;;20.90;51.60;;;;;;5075220;28;20592;-80
2022/07/09 08:36:42;;;;;;;1999.90;999.90;;;21.00;52.30;;;;;;5078443;28;20032;-80
2022/07/09 08:39:07;;;;;;;1999.90;999.90;;;21.00;49.10;;;;;;5067241;28;20024;-83
2022/07/09 08:41:33;;;;;;;1999.90;999.90;;;21.20;53.40;;;;;;5087662;28;20043;-80
2022/07/09 08:44:02;;;;;;;1999.90;999.90;;;21.30;46.30;;;;;;5086556;28;20180;-81
2022/07/09 08:46:27;;;;;;;1999.90;999.90;;;21.30;46.70;;;;;;5074675;28;20068;-81
2022/07/09 08:48:55;;;;;;;1999.90;999.90;;;21.30;53.70;;;;;;5085736;28;20027;-80
2022/07/09 08:51:22;;;;;;;1999.90;999.90;;;21.20;48.90;;;;;;5091586;28;20105;-81
2022/07/09 08:53:47;;;;;;;1999.90;999.90;;;21.20;48.50;;;;;;5075041;28;20517;-81
2022/07/09 08:56:13;;;;;;;1999.90;999.90;;;21.10;50.00;;;;;;5090872;28;20045;-80
2022/07/09 08:58:39;;;;;;;1999.90;999.90;;;20.70;48.60;;;;;;5087493;28;20024;-80
2022/07/09 09:01:06;;;;;;;1999.90;999.90;;;20.20;53.90;;;;;;5077397;28;20048;-80
2022/07/09 09:03:32;;;;;;;1999.90;999.90;;;20.00;52.20;;;;;;5075624;28;20032;-80
2022/07/09 09:06:07;;;;;;;1999.90;999.90;;;20.10;55.60;;;;;;5090921;28;20024;-81
2022/07/09 09:08:39;;;;;;;1999.90;999.90;;;20.20;52.80;;;;;;5091922;28;20027;-80
2022/07/09 09:11:07;;;;;;;1999.90;999.90;;;20.50;52.60;;;;;;5072931;28;20224;-80
2022/07/09 09:13:47;;;;;;;1999.90;999.90;;;20.70;50.80;;;;;;5071134;28;20059;-80
2022/07/09 09:16:15;;;;;;;1999.90;999.90;;;21.10;54.00;;;;;;5097098;28;20051;-81
2022/07/09 09:18:41;;;;;;;1999.90;999.90;;;21.60;52.30;;;;;;5101171;28;20051;-81
2022/07/09 09:21:09;;;;;;;1999.90;999.90;;;22.10;52.40;;;;;;5076928;28;20111;-81
2022/07/09 09:23:49;;;;;;;1999.90;999.90;;;21.90;49.60;;;;;;5076077;28;20114;-81
2022/07/09 09:26:15;;;;;;;1999.90;999.90;;;22.00;51.80;;;;;;5081735;28;20020;-80
2022/07/09 09:28:52;;;;;;;1999.90;999.90;;;22.20;49.10;;;;;;5079743;28;20487;-81
2022/07/09 09:31:38;;;;;;;1999.90;999.90;;;22.40;47.60;;;;;;5074948;28;20059;-84
2022/07/09 09:34:06;;;;;;;1999.90;999.90;;;22.60;49.70;;;;;;5065054;28;20043;-80
2022/07/09 09:36:43;;;;;;;1999.90;999.90;;;23.10;50.20;;;;;;5088268;28;20242;-81
2022/07/09 09:39:19;;;;;;;1999.90;999.90;;;23.20;50.40;;;;;;5074874;28;20059;-84
2022/07/09 09:41:46;;;;;;;1999.90;999.90;;;22.90;48.90;;;;;;5095363;28;20114;-81
2022/07/09 09:44:40;;;;;;;1999.90;999.90;;;22.90;47.10;;;;;;5072832;28;20059;-82
2022/07/09 09:47:07;;;;;;;1999.90;999.90;;;23.00;49.30;;;;;;5083266;28;20577;-82
2022/07/09 09:49:34;;;;;;;1999.90;999.90;;;23.80;47.20;;;;;;5096129;28;20031;-81
2022/07/09 09:52:05;;;;;;;1999.90;999.90;;;23.50;46.40;;;;;;5097887;28;20028;-81
2022/07/09 09:54:39;;;;;;;1999.90;999.90;;;23.40;41.80;;;;;;5075670;28;20047;-85
2022/07/09 09:57:10;;;;;;;1999.90;999.90;;;23.50;48.60;;;;;;5075897;28;20042;-81
2022/07/09 09:59:37;;;;;;;1999.90;999.90;;;23.60;41.50;;;;;;5076971;28;20364;-81
2022/07/09 10:02:11;;;;;;;1999.90;999.90;;;23.20;42.00;;;;;;5060913;28;20088;-81
2022/07/09 10:04:41;;;;;;;1999.90;999.90;;;23.40;43.70;;;;;;5070163;28;20133;-81
2022/07/09 10:07:08;;;;;;;;;;;23.30;40.00;;;;;;5092946;28;20471;-82
2022/07/09 10:09:33;;;;;;;1999.90;999.90;;;23.50;43.80;;;;;;5090668;28;19912;-82
2022/07/09 10:11:59;;;;;;;1999.90;999.90;;;23.80;46.80;;;;;;5073619;28;20043;-82
2022/07/09 10:14:24;;;;;;;1999.90;999.90;;;23.70;40.00;;;;;;5091820;28;20488;-81
2022/07/09 10:16:53;;;;;;;1999.90;999.90;;;24.80;42.40;;;;;;5097164;28;20028;-82
2022/07/09 10:19:27;;;;;;;1999.90;999.90;;;24.90;37.60;;;;;;5100562;28;20043;-81
2022/07/09 10:21:55;;;;;;;1999.90;999.90;;;24.80;34.40;;;;;;5073332;28;20035;-81
2022/07/09 10:24:38;;;;;;;1999.90;999.90;;;24.60;37.40;;;;;;5094220;28;20028;-82
2022/07/09 10:27:10;;;;;;;1999.90;999.90;;;25.10;40.50;;;;;;5077541;28;20028;-82
2022/07/09 10:29:53;;;;;;;1999.90;999.90;;;25.00;32.40;;;;;;5077337;28;20496;-81
2022/07/09 10:32:33;;;;;;;1999.90;999.90;;;24.60;35.20;;;;;;5071547;28;20483;-81
2022/07/09 10:35:00;;;;;;;1999.90;999.90;;;24.60;33.70;;;;;;5088417;28;20035;-81
2022/07/09 10:37:35;;;;;;;1999.90;999.90;;;25.10;31.00;;;;;;5091706;28;20024;-82
2022/07/09 10:40:08;;;;;;;1999.90;999.90;;;24.50;31.80;;;;;;5072076;28;20020;-81
2022/07/09 10:42:34;;;;;;;1999.90;999.90;;;25.10;32.20;;;;;;5090001;28;20036;-81
2022/07/09 10:45:00;;;;;;;1999.90;999.90;;;25.00;33.60;;;;;;5078131;28;20034;-82
2022/07/09 10:47:37;;;;;;;1999.90;999.90;;;24.50;35.80;;;;;;5093836;28;20035;-82
2022/07/09 10:50:05;;;;;;;1999.90;999.90;;;25.50;31.50;;;;;;5086766;28;20126;-82
2022/07/09 10:52:31;;;;;;;1999.90;999.90;;;26.00;35.40;;;;;;5064781;28;20028;-82
2022/07/09 10:54:56;;;;;;;1999.90;999.90;;;25.80;36.10;;;;;;5095103;28;20121;-82
2022/07/09 10:57:22;;;;;;;1333.32;525.03;;;25.70;28.10;;;;;;5057871;28;20028;-81
2022/07/09 10:59:48;;;;;;;1999.90;985.63;;;26.10;28.30;;;;;;5097167;28;20044;-81
2022/07/09 11:02:21;;;;;;;1999.90;999.90;;;27.00;30.30;;;;;;5093638;28;20451;-82
2022/07/09 11:04:53;;;;;;;1999.90;999.90;;;26.90;29.00;;;;;;5089868;28;20122;-82
2022/07/09 11:07:29;;;;;;;1999.90;758.75;;;27.50;28.60;;;;;;5096193;28;20023;-82
2022/07/09 11:09:55;;;;;;;1999.90;999.90;;;27.80;31.10;;;;;;5090757;28;20022;-82
2022/07/09 11:12:22;;;;;;;1999.90;999.90;;;27.60;26.80;;;;;;5091043;28;20030;-82
2022/07/09 11:14:50;;;;;;;1999.90;999.90;;;27.30;25.90;;;;;;5092112;28;20027;-82
2022/07/09 11:17:20;;;;;;;1999.90;999.90;;;27.90;24.70;;;;;;5104044;28;20027;-81
2022/07/09 11:19:47;;;;;;;1999.90;860.17;;;29.20;24.40;;;;;;5082858;28;20044;-82
2022/07/09 11:22:14;;;;;;;1972.50;785.83;;;28.30;27.50;;;;;;5099773;28;20031;-82
2022/07/09 11:24:40;;;;;;;1999.90;999.90;;;28.30;28.40;;;;;;5082278;28;20024;-83
2022/07/09 11:27:07;;;;;;;1999.90;999.90;;;28.30;26.60;;;;;;5097799;28;20078;-82
2022/07/09 11:29:37;;;;;;;1999.90;953.67;;;28.80;28.60;;;;;;5075771;28;20499;-82
2022/07/09 11:32:03;;;;;;;1999.90;943.78;;;30.10;25.60;;;;;;5073391;28;20035;-82
2022/07/09 11:34:29;;;;;;;1999.90;999.90;;;30.30;25.10;;;;;;5092927;28;20568;-83
2022/07/09 11:36:58;;;;;;;1999.90;828.60;;;29.70;22.20;;;;;;5095854;28;20098;-83
2022/07/09 11:39:29;;;;;;;1999.90;999.90;;;29.50;25.40;;;;;;5077497;28;20287;-82
2022/07/09 11:41:56;;;;;;;1999.90;999.90;;;29.20;23.00;;;;;;5076787;28;20578;-82
2022/07/09 11:44:24;;;;;;;1999.90;803.28;;;28.70;24.10;;;;;;5098869;28;20039;-83
2022/07/09 11:47:02;;;;;;;1999.90;728.17;;;29.50;26.50;;;;;;5104754;28;20099;-87
2022/07/09 11:49:37;;;;;;;1999.90;999.90;;;28.90;23.40;;;;;;5083792;28;20039;-82
2022/07/09 11:52:15;;;;;;;1999.90;986.22;;;29.30;25.60;;;;;;5066736;28;20028;-82
2022/07/09 11:54:53;;;;;;;1999.90;999.90;;;29.30;23.10;;;;;;5066956;28;20096;-83
2022/07/09 11:57:22;;;;;;;1999.90;999.90;;;29.40;24.50;;;;;;5082829;28;20060;-82
2022/07/09 11:59:48;;;;;;;1999.90;999.90;;;29.70;22.20;;;;;;5074876;28;20040;-82
2022/07/09 12:02:31;;;;;;;1999.90;999.90;;;30.90;21.10;;;;;;5096687;28;20039;-83